createdAt,value
2019-04-05T00:00:40.622Z,100278.84
2019-04-05T00:03:10.092Z,100288.05
2019-04-05T00:05:40.429Z,100286.15
2019-04-05T00:08:11.330Z,100289.64
2019-04-05T00:10:40.758Z,100293.56
2019-04-05T00:13:11.782Z,100290.86
2019-04-05T00:15:41.315Z,100302.16
2019-04-05T00:18:13.281Z,100294.52
2019-04-05T00:20:45.020Z,100294.95
2019-04-05T00:23:14.524Z,100290.56
2019-04-05T00:25:44.989Z,100292.30
2019-04-05T00:28:16.109Z,100287.39
2019-04-05T00:30:46.728Z,100282.51
2019-04-05T00:33:17.322Z,100277.94
2019-04-05T00:35:48.201Z,100269.91
2019-04-05T00:38:18.737Z,100261.33
2019-04-05T00:40:48.242Z,100263.71
2019-04-05T00:43:17.699Z,100256.53
2019-04-05T00:45:48.554Z,100256.45
2019-04-05T00:48:20.442Z,100256.93
2019-04-05T00:50:50.159Z,100255.13
2019-04-05T00:53:19.609Z,100254.84
2019-04-05T00:55:50.226Z,100256.53
2019-04-05T00:58:20.964Z,100264.47
2019-04-05T01:00:51.463Z,100265.16
2019-04-05T01:03:20.871Z,100258.78
2019-04-05T01:05:50.908Z,100268.79
2019-04-05T01:08:20.326Z,100270.02
2019-04-05T01:10:49.730Z,100278.71
2019-04-05T01:13:21.172Z,100279.19
2019-04-05T01:15:50.684Z,100288.55
2019-04-05T01:18:20.176Z,100291.73
2019-04-05T01:20:51.905Z,100294.27
2019-04-05T01:23:24.012Z,100304.86
2019-04-05T01:25:56.762Z,100302.20
2019-04-05T01:28:29.786Z,100307.12
2019-04-05T01:30:59.258Z,100303.09
2019-04-05T01:33:31.260Z,100298.69
2019-04-05T01:36:03.844Z,100294.70
2019-04-05T01:38:36.222Z,100290.81
2019-04-05T01:41:06.083Z,100291.56
2019-04-05T01:43:36.768Z,100306.62
2019-04-05T01:46:08.948Z,100312.27
2019-04-05T01:48:40.665Z,100306.38
2019-04-05T01:51:11.578Z,100303.45
2019-04-05T01:53:40.983Z,100307.77
2019-04-05T01:56:10.657Z,100308.39
2019-04-05T01:58:40.111Z,100303.20
2019-04-05T02:01:12.096Z,100292.31
2019-04-05T02:03:41.850Z,100302.59
2019-04-05T02:06:11.252Z,100318.87
2019-04-05T02:08:41.223Z,100320.09
2019-04-05T02:11:12.122Z,100313.26
2019-04-05T02:13:41.525Z,100314.64
2019-04-05T02:16:13.493Z,100312.98
2019-04-05T02:18:46.372Z,100312.23
2019-04-05T02:21:17.619Z,100306.58
2019-04-05T02:23:47.423Z,100293.82
2019-04-05T02:26:16.997Z,100282.08
2019-04-05T02:28:47.947Z,100282.61
2019-04-05T02:31:19.289Z,100273.73
2019-04-05T02:33:50.490Z,100276.05
2019-04-05T02:36:21.545Z,100270.83
2019-04-05T02:38:52.057Z,100266.72
2019-04-05T02:41:24.525Z,100265.97
2019-04-05T02:43:56.948Z,100270.03
2019-04-05T02:46:29.385Z,100267.48
2019-04-05T02:49:01.645Z,100271.06
2019-04-05T02:51:34.574Z,100276.45
2019-04-05T02:54:04.919Z,100276.00
2019-04-05T02:56:36.776Z,100276.39
2019-04-05T02:59:07.481Z,100280.69
2019-04-05T03:01:39.326Z,100280.27
2019-04-05T03:04:11.113Z,100282.13
2019-04-05T03:06:42.253Z,100287.55
2019-04-05T03:09:12.969Z,100291.25
2019-04-05T03:11:44.180Z,100300.80
2019-04-05T03:14:15.051Z,100309.61
2019-04-05T03:16:47.415Z,100314.83
2019-04-05T03:19:21.040Z,100318.72
2019-04-05T03:21:58.479Z,100324.41
2019-04-05T03:24:32.094Z,100320.52
2019-04-05T03:27:12.262Z,100323.94
2019-04-05T03:29:43.108Z,100327.93
2019-04-05T03:32:15.954Z,100330.59
2019-04-05T03:34:46.027Z,100325.66
2019-04-05T03:37:16.246Z,100332.50
2019-04-05T03:39:46.386Z,100329.16
2019-04-05T03:42:18.405Z,100327.89
2019-04-05T03:44:48.913Z,100335.95
2019-04-05T03:47:21.122Z,100345.57
2019-04-05T03:49:51.044Z,100356.38
2019-04-05T03:52:22.470Z,100361.12
2019-04-05T03:54:53.143Z,100365.41
2019-04-05T03:57:25.843Z,100363.68
2019-04-05T03:59:56.691Z,100356.59
2019-04-05T04:02:26.406Z,100370.41
2019-04-05T04:04:56.615Z,100361.19
2019-04-05T04:07:26.110Z,100367.38
2019-04-05T04:09:55.939Z,100368.31
2019-04-05T04:12:25.901Z,100363.96
2019-04-05T04:14:57.611Z,100355.18
2019-04-05T04:17:27.261Z,100356.30
2019-04-05T04:19:57.339Z,100357.02
2019-04-05T04:22:31.493Z,100365.02
2019-04-05T04:25:02.684Z,100359.69
2019-04-05T04:27:34.365Z,100357.41
2019-04-05T04:30:03.972Z,100359.97
2019-04-05T04:32:33.461Z,100362.45
2019-04-05T04:35:03.816Z,100367.97
2019-04-05T04:37:33.189Z,100370.91
2019-04-05T04:40:04.274Z,100374.33
2019-04-05T04:42:34.034Z,100371.92
2019-04-05T04:45:11.945Z,100370.70
2019-04-05T04:47:36.987Z,100367.24
2019-04-05T04:50:08.148Z,100370.88
2019-04-05T04:52:38.697Z,100368.11
2019-04-05T04:55:11.270Z,100377.65
2019-04-05T04:57:41.169Z,100382.19
2019-04-05T05:00:10.894Z,100385.28
2019-04-05T05:02:41.761Z,100387.16
2019-04-05T05:05:12.176Z,100394.28
2019-04-05T05:07:41.937Z,100398.17
2019-04-05T05:10:11.619Z,100401.52
2019-04-05T05:12:42.925Z,100400.22
2019-04-05T05:15:13.042Z,100396.30
2019-04-05T05:17:44.082Z,100401.52
2019-04-05T05:20:15.163Z,100406.30
2019-04-05T05:22:47.209Z,100413.52
2019-04-05T05:25:17.437Z,100414.73
2019-04-05T05:27:48.992Z,100414.38
2019-04-05T05:30:18.513Z,100418.55
2019-04-05T05:32:47.999Z,100421.04
2019-04-05T05:35:21.132Z,100423.31
2019-04-05T05:37:50.899Z,100423.63
2019-04-05T05:40:34.095Z,100416.78
2019-04-05T05:42:53.136Z,100418.84
2019-04-05T05:45:24.084Z,100415.03
2019-04-05T05:47:53.652Z,100419.45
2019-04-05T05:50:23.363Z,100419.63
2019-04-05T05:52:54.400Z,100425.79
2019-04-05T05:55:23.907Z,100417.39
2019-04-05T05:57:58.529Z,100421.35
2019-04-05T06:00:31.073Z,100417.02
2019-04-05T06:03:01.847Z,100415.38
2019-04-05T06:05:31.669Z,100410.11
2019-04-05T06:08:01.596Z,100407.20
2019-04-05T06:10:33.749Z,100414.66
2019-04-05T06:13:07.259Z,100423.48
2019-04-05T06:15:37.558Z,100427.73
2019-04-05T06:18:07.029Z,100419.97
2019-04-05T06:20:36.706Z,100422.75
2019-04-05T06:23:08.551Z,100426.27
2019-04-05T06:25:37.978Z,100436.89
2019-04-05T06:28:08.613Z,100429.28
2019-04-05T06:30:38.062Z,100435.80
2019-04-05T06:33:09.372Z,100441.60
2019-04-05T06:35:39.177Z,100434.94
2019-04-05T06:38:10.339Z,100435.02
2019-04-05T06:40:41.410Z,100432.81
2019-04-05T06:43:12.206Z,100443.98
2019-04-05T06:45:44.409Z,100446.43
2019-04-05T06:48:19.594Z,100449.92
2019-04-05T06:50:47.262Z,100450.57
2019-04-05T06:53:16.596Z,100456.08
2019-04-05T06:55:46.035Z,100455.82
2019-04-05T06:58:19.731Z,100445.73
2019-04-05T07:00:57.070Z,100448.44
2019-04-05T07:03:21.668Z,100456.16
2019-04-05T07:05:52.534Z,100443.06
2019-04-05T07:08:23.677Z,100450.00
2019-04-05T07:10:53.184Z,100451.80
2019-04-05T07:13:23.935Z,100451.87
2019-04-05T07:15:54.437Z,100462.86
2019-04-05T07:18:33.990Z,100464.66
2019-04-05T07:20:57.875Z,100462.78
2019-04-05T07:23:28.064Z,100472.69
2019-04-05T07:26:00.523Z,100474.48
2019-04-05T07:28:31.459Z,100473.55
2019-04-05T07:31:02.106Z,100477.28
2019-04-05T07:33:31.706Z,100475.79
2019-04-05T07:36:04.295Z,100474.98
2019-04-05T07:38:35.685Z,100478.69
2019-04-05T07:41:07.664Z,100481.30
2019-04-05T07:43:37.298Z,100481.02
2019-04-05T07:46:06.906Z,100487.86
2019-04-05T07:48:44.651Z,100484.31
2019-04-05T07:51:07.816Z,100481.55
2019-04-05T07:53:37.221Z,100477.87
2019-04-05T07:56:09.787Z,100482.94
2019-04-05T07:58:39.442Z,100489.42
2019-04-05T08:01:09.211Z,100489.02
2019-04-05T08:03:38.992Z,100485.06
2019-04-05T08:06:08.715Z,100491.49
2019-04-05T08:08:46.827Z,100490.21
2019-04-05T08:11:17.064Z,100491.32
2019-04-05T08:13:49.015Z,100502.97
2019-04-05T08:16:18.641Z,100506.56
2019-04-05T08:18:57.538Z,100515.22
2019-04-05T08:21:22.921Z,100510.81
2019-04-05T08:23:52.373Z,100517.30
2019-04-05T08:26:22.761Z,100517.49
2019-04-05T08:28:52.797Z,100523.47
2019-04-05T08:31:22.247Z,100522.72
2019-04-05T08:33:51.757Z,100513.66
2019-04-05T08:36:23.352Z,100516.84
2019-04-05T08:38:54.625Z,100510.89
2019-04-05T08:41:25.611Z,100508.36
2019-04-05T08:43:55.358Z,100504.75
2019-04-05T08:46:27.766Z,100502.30
2019-04-05T08:49:10.053Z,100494.68
2019-04-05T08:51:31.298Z,100499.48
2019-04-05T08:54:02.638Z,100503.84
2019-04-05T08:56:32.296Z,100501.17
2019-04-05T08:59:03.247Z,100500.81
2019-04-05T09:01:32.764Z,100495.67
2019-04-05T09:04:03.711Z,100492.45
2019-04-05T09:06:35.162Z,100499.84
2019-04-05T09:09:07.231Z,100496.50
2019-04-05T09:11:37.963Z,100493.52
2019-04-05T09:14:07.583Z,100490.73
2019-04-05T09:16:38.812Z,100498.94
2019-04-05T09:19:22.776Z,100494.81
2019-04-05T09:21:41.632Z,100498.67
2019-04-05T09:24:11.180Z,100496.00
2019-04-05T09:26:41.208Z,100499.17
2019-04-05T09:29:11.321Z,100495.84
2019-04-05T09:31:41.061Z,100495.13
2019-04-05T09:34:11.092Z,100494.98
2019-04-05T09:36:44.616Z,100498.08
2019-04-05T09:39:15.877Z,100490.23
2019-04-05T09:41:45.378Z,100486.61
2019-04-05T09:44:15.268Z,100491.17
2019-04-05T09:46:50.984Z,100495.58
2019-04-05T09:49:21.117Z,100485.28
2019-04-05T09:51:51.817Z,100490.77
2019-04-05T09:54:21.404Z,100496.74
2019-04-05T09:56:56.587Z,100495.77
2019-04-05T09:59:25.159Z,100493.58
2019-04-05T10:01:54.673Z,100488.48
2019-04-05T10:04:31.131Z,100496.74
2019-04-05T10:06:59.629Z,100497.61
2019-04-05T10:09:30.785Z,100496.89
2019-04-05T10:12:00.616Z,100501.20
2019-04-05T10:14:30.361Z,100498.45
2019-04-05T10:16:59.906Z,100500.42
2019-04-05T10:19:31.503Z,100499.70
2019-04-05T10:22:01.135Z,100512.63
2019-04-05T10:24:33.152Z,100507.34
2019-04-05T10:27:02.765Z,100524.67
2019-04-05T10:29:33.873Z,100519.52
2019-04-05T10:32:03.416Z,100515.50
2019-04-05T10:34:32.994Z,100522.93
2019-04-05T10:37:04.579Z,100525.14
2019-04-05T10:39:34.226Z,100525.97
2019-04-05T10:42:15.917Z,100520.26
2019-04-05T10:44:42.611Z,100515.82
2019-04-05T10:47:13.124Z,100511.19
2019-04-05T10:49:43.582Z,100508.64
2019-04-05T10:52:13.321Z,100512.71
2019-04-05T10:54:44.314Z,100508.88
2019-04-05T10:57:14.779Z,100515.44
2019-04-05T10:59:45.595Z,100522.65
2019-04-05T11:02:15.043Z,100523.12
2019-04-05T11:04:46.358Z,100525.50
2019-04-05T11:07:15.840Z,100526.06
2019-04-05T11:09:53.538Z,100529.06
2019-04-05T11:12:25.419Z,100525.63
2019-04-05T11:14:56.975Z,100524.03
2019-04-05T11:17:27.382Z,100515.73
2019-04-05T11:19:56.803Z,100521.50
2019-04-05T11:22:26.368Z,100529.77
2019-04-05T11:24:57.689Z,100525.36
2019-04-05T11:27:27.386Z,100519.20
2019-04-05T11:29:59.253Z,100519.66
2019-04-05T11:32:28.851Z,100529.23
2019-04-05T11:34:59.521Z,100524.88
2019-04-05T11:37:29.475Z,100524.74
2019-04-05T11:39:59.189Z,100525.05
2019-04-05T11:42:29.468Z,100526.39
2019-04-05T11:45:01.679Z,100524.30
2019-04-05T11:47:32.367Z,100519.00
2019-04-05T11:50:10.547Z,100515.32
2019-04-05T11:52:40.159Z,100521.94
2019-04-05T11:55:09.574Z,100520.91
2019-04-05T11:57:41.463Z,100514.80
2019-04-05T12:00:18.838Z,100522.83
2019-04-05T12:02:52.999Z,100518.05
2019-04-05T12:05:26.957Z,100515.34
2019-04-05T12:07:58.577Z,100524.67
2019-04-05T12:10:27.887Z,100519.47
2019-04-05T12:12:58.734Z,100520.34
2019-04-05T12:15:28.435Z,100519.35
2019-04-05T12:17:59.374Z,100522.38
2019-04-05T12:20:30.745Z,100522.80
2019-04-05T12:23:03.812Z,100517.05
2019-04-05T12:25:34.503Z,100503.23
2019-04-05T12:28:06.986Z,100496.15
2019-04-05T12:30:38.383Z,100514.81
2019-04-05T12:33:14.345Z,100516.57
2019-04-05T12:35:41.765Z,100517.70
2019-04-05T12:38:13.439Z,100522.09
2019-04-05T12:40:43.080Z,100523.20
2019-04-05T12:43:13.628Z,100523.70
2019-04-05T12:45:44.653Z,100525.34
2019-04-05T12:48:16.007Z,100527.30
2019-04-05T12:50:47.157Z,100535.53
2019-04-05T12:53:16.795Z,100534.42
2019-04-05T12:55:47.234Z,100542.09
2019-04-05T12:58:16.783Z,100543.40
2019-04-05T13:00:47.773Z,100549.98
2019-04-05T13:03:20.850Z,100552.31
2019-04-05T13:05:51.596Z,100547.31
2019-04-05T13:08:24.862Z,100546.05
2019-04-05T13:10:56.176Z,100548.56
2019-04-05T13:13:27.863Z,100554.86
2019-04-05T13:15:59.460Z,100557.79
2019-04-05T13:18:31.549Z,100552.80
2019-04-05T13:21:09.385Z,100554.81
2019-04-05T13:23:35.970Z,100549.83
2019-04-05T13:26:11.472Z,100550.72
2019-04-05T13:28:40.076Z,100553.20
2019-04-05T13:31:11.747Z,100554.18
2019-04-05T13:33:42.882Z,100551.17
2019-04-05T13:36:12.787Z,100554.18
2019-04-05T13:38:54.621Z,100555.48
2019-04-05T13:41:19.074Z,100560.04
2019-04-05T13:43:49.828Z,100563.64
2019-04-05T13:46:22.203Z,100562.36
2019-04-05T13:48:57.308Z,100562.77
2019-04-05T13:51:30.488Z,100564.70
2019-04-05T13:53:58.392Z,100564.70
2019-04-05T13:56:29.604Z,100566.94
2019-04-05T13:59:01.041Z,100568.42
2019-04-05T14:01:30.727Z,100568.00
2019-04-05T14:04:02.150Z,100557.11
2019-04-05T14:06:32.635Z,100571.45
2019-04-05T14:09:03.353Z,100561.94
2019-04-05T14:11:34.371Z,100561.42
2019-04-05T14:14:06.823Z,100566.18
2019-04-05T14:16:38.385Z,100560.06
2019-04-05T14:19:08.249Z,100552.97
2019-04-05T14:21:40.848Z,100555.52
2019-04-05T14:24:11.116Z,100556.14
2019-04-05T14:26:43.588Z,100552.73
2019-04-05T14:29:13.257Z,100548.48
2019-04-05T14:31:44.192Z,100550.96
2019-04-05T14:34:13.692Z,100551.22
2019-04-05T14:36:45.109Z,100541.35
2019-04-05T14:39:16.660Z,100542.41
2019-04-05T14:41:46.073Z,100543.84
2019-04-05T14:44:15.741Z,100547.37
2019-04-05T14:46:45.586Z,100540.67
2019-04-05T14:49:16.126Z,100546.89
2019-04-05T14:51:53.908Z,100539.48
2019-04-05T14:54:23.527Z,100538.05
2019-04-05T14:56:57.309Z,100533.91
2019-04-05T14:59:28.779Z,100537.83
2019-04-05T15:01:59.679Z,100539.03
2019-04-05T15:04:29.084Z,100538.72
2019-04-05T15:07:01.210Z,100541.86
2019-04-05T15:09:31.747Z,100542.09
2019-04-05T15:12:01.140Z,100544.30
2019-04-05T15:14:30.561Z,100551.76
2019-04-05T15:17:01.897Z,100542.56
2019-04-05T15:19:31.591Z,100547.98
2019-04-05T15:22:06.094Z,100545.30
2019-04-05T15:24:32.681Z,100544.52
2019-04-05T15:27:03.236Z,100548.41
2019-04-05T15:29:35.633Z,100546.22
2019-04-05T15:32:05.714Z,100539.44
2019-04-05T15:34:35.119Z,100537.47
2019-04-05T15:37:06.361Z,100539.93
2019-04-05T15:39:36.090Z,100539.56
2019-04-05T15:42:05.881Z,100543.97
2019-04-05T15:44:35.357Z,100548.13
2019-04-05T15:47:04.931Z,100549.94
2019-04-05T15:49:36.874Z,100544.31
2019-04-05T15:52:18.005Z,100549.31
2019-04-05T15:54:38.954Z,100547.98
2019-04-05T15:57:09.522Z,100554.42
2019-04-05T15:59:41.452Z,100555.16
2019-04-05T16:02:11.118Z,100553.47
2019-04-05T16:04:40.508Z,100559.31
2019-04-05T16:07:09.933Z,100557.60
2019-04-05T16:09:39.606Z,100563.09
2019-04-05T16:12:10.184Z,100562.36
2019-04-05T16:14:39.694Z,100570.03
2019-04-05T16:17:12.518Z,100576.41
2019-04-05T16:19:42.413Z,100573.47
2019-04-05T16:22:13.537Z,100577.13
2019-04-05T16:24:43.213Z,100579.33
2019-04-05T16:27:14.493Z,100579.94
2019-04-05T16:29:45.863Z,100579.59
2019-04-05T16:32:17.269Z,100580.27
2019-04-05T16:34:48.203Z,100582.02
2019-04-05T16:37:17.669Z,100582.29
2019-04-05T16:39:50.323Z,100588.34
2019-04-05T16:42:19.690Z,100590.97
2019-04-05T16:44:50.130Z,100591.22
2019-04-05T16:47:21.363Z,100592.44
2019-04-05T16:49:52.063Z,100595.25
2019-04-05T16:52:24.492Z,100598.65
2019-04-05T16:54:54.201Z,100604.62
2019-04-05T16:57:24.988Z,100600.77
2019-04-05T16:59:54.395Z,100591.02
2019-04-05T17:02:26.604Z,100600.03
2019-04-05T17:04:57.117Z,100601.84
2019-04-05T17:07:27.688Z,100603.30
2019-04-05T17:09:58.624Z,100622.48
2019-04-05T17:12:29.870Z,100611.80
2019-04-05T17:14:59.314Z,100610.08
2019-04-05T17:17:29.317Z,100615.25
2019-04-05T17:19:58.748Z,100616.44
2019-04-05T17:22:28.249Z,100623.48
2019-04-05T17:24:59.893Z,100624.95
2019-04-05T17:27:29.287Z,100616.30
2019-04-05T17:30:00.397Z,100624.55
2019-04-05T17:32:31.367Z,100620.10
2019-04-05T17:35:00.853Z,100627.23
2019-04-05T17:37:30.235Z,100626.34
2019-04-05T17:40:00.703Z,100623.84
2019-04-05T17:42:30.092Z,100623.93
2019-04-05T17:44:59.711Z,100626.61
2019-04-05T17:47:29.248Z,100625.71
2019-04-05T17:49:58.620Z,100626.73
2019-04-05T17:52:30.605Z,100636.69
2019-04-05T17:55:00.107Z,100630.00
2019-04-05T17:57:29.913Z,100637.16
2019-04-05T18:00:01.082Z,100635.43
2019-04-05T18:02:30.578Z,100640.75
2019-04-05T18:05:01.835Z,100640.11
2019-04-05T18:07:34.410Z,100642.66
2019-04-05T18:10:05.462Z,100643.25
2019-04-05T18:12:34.915Z,100645.78
2019-04-05T18:15:05.921Z,100652.70
2019-04-05T18:17:35.427Z,100655.70
2019-04-05T18:20:06.275Z,100656.00
2019-04-05T18:22:35.875Z,100663.91
2019-04-05T18:25:06.705Z,100662.34
2019-04-05T18:27:36.121Z,100669.62
2019-04-05T18:30:07.933Z,100668.52
2019-04-05T18:32:37.657Z,100666.63
2019-04-05T18:35:08.717Z,100675.09
2019-04-05T18:37:39.540Z,100679.84
2019-04-05T18:40:09.705Z,100682.95
2019-04-05T18:42:40.367Z,100679.53
2019-04-05T18:45:11.671Z,100679.84
2019-04-05T18:47:43.142Z,100691.98
2019-04-05T18:50:15.510Z,100689.79
2019-04-05T18:52:45.922Z,100692.07
2019-04-05T18:55:16.694Z,100686.84
2019-04-05T18:57:47.203Z,100695.72
2019-04-05T19:00:17.445Z,100689.16
2019-04-05T19:02:47.944Z,100694.66
2019-04-05T19:05:17.566Z,100700.39
2019-04-05T19:07:47.034Z,100694.70
2019-04-05T19:10:18.231Z,100696.27
2019-04-05T19:12:47.778Z,100705.34
2019-04-05T19:15:17.406Z,100699.58
2019-04-05T19:17:49.582Z,100703.86
2019-04-05T19:20:20.882Z,100707.48
2019-04-05T19:22:50.482Z,100704.97
2019-04-05T19:25:20.222Z,100708.17
2019-04-05T19:27:49.729Z,100706.14
2019-04-05T19:48:41.784Z,100723.06
2019-04-05T19:50:43.337Z,100732.67
2019-04-05T19:53:13.947Z,100738.13
2019-04-05T19:55:45.515Z,100737.88
2019-04-05T19:58:16.762Z,100733.06
2019-04-05T20:00:48.224Z,100735.28
2019-04-05T20:03:17.776Z,100743.81
2019-04-05T20:05:47.174Z,100739.30
2019-04-05T20:08:16.580Z,100744.53
2019-04-05T20:10:46.237Z,100740.84
2019-04-05T20:13:15.656Z,100737.95
2019-04-05T20:15:45.082Z,100735.16
2019-04-05T20:18:14.803Z,100745.51
2019-04-05T20:20:44.375Z,100741.22
2019-04-05T20:23:14.286Z,100739.23
2019-04-05T20:25:43.922Z,100748.01
2019-04-05T20:28:13.335Z,100753.83
2019-04-05T20:30:43.484Z,100747.53
2019-04-05T20:33:13.132Z,100744.58
2019-04-05T20:35:43.115Z,100750.20
2019-04-05T20:38:13.157Z,100748.66
2019-04-05T20:40:43.179Z,100748.94
2019-04-05T20:43:13.220Z,100761.72
2019-04-05T20:45:43.091Z,100761.83
2019-04-05T20:48:13.224Z,100761.38
2019-04-05T20:50:43.109Z,100769.20
2019-04-05T20:53:13.046Z,100764.27
2019-04-05T20:55:43.457Z,100768.05
2019-04-05T20:58:13.145Z,100767.63
2019-04-05T21:00:43.095Z,100767.99
2019-04-05T21:03:13.437Z,100769.66
2019-04-05T21:05:44.270Z,100763.55
2019-04-05T21:08:13.685Z,100766.28
2019-04-05T21:10:43.372Z,100760.80
2019-04-05T21:13:13.285Z,100767.16
2019-04-05T21:15:44.623Z,100765.09
2019-04-05T21:18:14.133Z,100771.00
2019-04-05T21:20:43.611Z,100766.20
2019-04-05T21:23:13.281Z,100769.15
2019-04-05T21:25:43.484Z,100773.36
2019-04-05T21:28:13.208Z,100775.19
2019-04-05T21:30:43.133Z,100764.22
2019-04-05T21:33:14.384Z,100776.13
2019-04-05T21:35:45.791Z,100767.28
2019-04-05T21:38:15.225Z,100771.86
2019-04-05T21:40:45.053Z,100776.91
2019-04-05T21:43:16.292Z,100773.88
2019-04-05T21:45:46.769Z,100768.91
2019-04-05T21:48:16.515Z,100777.77
2019-04-05T21:50:46.393Z,100786.60
2019-04-05T21:53:16.906Z,100787.28
2019-04-05T21:55:46.792Z,100793.86
2019-04-05T21:58:18.313Z,100796.16
2019-04-05T22:00:55.012Z,100805.51
2019-04-05T22:03:24.524Z,100814.95
2019-04-05T22:05:53.947Z,100811.88
2019-04-05T22:08:24.912Z,100808.07
2019-04-05T22:10:54.478Z,100805.00
2019-04-05T22:13:23.904Z,100810.18
2019-04-05T22:15:53.614Z,100816.45
2019-04-05T22:18:23.027Z,100812.55
2019-04-05T22:20:52.459Z,100810.95
2019-04-05T22:23:21.951Z,100807.11
2019-04-05T22:25:51.361Z,100805.78
2019-04-05T22:28:20.943Z,100811.69
2019-04-05T22:30:50.533Z,100809.31
2019-04-05T22:33:20.205Z,100812.64
2019-04-05T22:35:49.928Z,100810.84
2019-04-05T22:38:19.637Z,100810.45
2019-04-05T22:40:49.216Z,100805.31
2019-04-05T22:43:18.712Z,100805.88
2019-04-05T22:45:48.338Z,100806.08
2019-04-05T22:48:17.933Z,100815.12
2019-04-05T22:50:47.345Z,100811.58
2019-04-05T22:53:16.922Z,100813.61
2019-04-05T22:55:46.366Z,100803.01
2019-04-05T22:58:15.818Z,100811.98
2019-04-05T23:00:45.468Z,100808.92
2019-04-05T23:03:14.847Z,100814.19
2019-04-05T23:05:44.292Z,100813.02
2019-04-05T23:08:13.904Z,100813.59
2019-04-05T23:10:43.429Z,100821.50
2019-04-05T23:13:13.500Z,100819.70
2019-04-05T23:15:43.680Z,100810.73
2019-04-05T23:18:13.447Z,100800.83
2019-04-05T23:20:43.564Z,100795.59
2019-04-05T23:23:13.890Z,100797.50
2019-04-05T23:25:43.500Z,100789.60
2019-04-05T23:28:13.524Z,100789.11
2019-04-05T23:30:43.703Z,100777.58
2019-04-05T23:33:14.492Z,100779.51
2019-04-05T23:35:43.944Z,100773.01
2019-04-05T23:38:15.176Z,100778.84
2019-04-05T23:40:44.878Z,100779.31
2019-04-05T23:43:15.583Z,100785.51
2019-04-05T23:45:45.017Z,100784.91
2019-04-05T23:48:14.394Z,100793.41
2019-04-05T23:50:45.245Z,100807.67
2019-04-05T23:53:14.934Z,100807.94
2019-04-05T23:55:44.296Z,100812.23
2019-04-05T23:58:13.674Z,100817.00
